createdAt,value
2017-07-27T00:00:33.870Z,85.37
2017-07-27T00:01:44.097Z,85.28
2017-07-27T00:02:54.778Z,85.28
2017-07-27T00:04:05.301Z,85.75
2017-07-27T00:05:15.790Z,85.47
2017-07-27T00:06:26.489Z,85.85
2017-07-27T00:07:36.961Z,85.95
2017-07-27T00:08:47.454Z,86.05
2017-07-27T00:09:58.180Z,86.05
2017-07-27T00:11:08.627Z,86.05
2017-07-27T00:12:19.344Z,86.24
2017-07-27T00:13:29.863Z,85.95
2017-07-27T00:14:40.358Z,86.24
2017-07-27T00:15:50.806Z,86.43
2017-07-27T00:17:01.407Z,86.33
2017-07-27T00:18:12.329Z,86.24
2017-07-27T00:19:22.896Z,86.14
2017-07-27T00:20:33.368Z,86.14
2017-07-27T00:21:43.853Z,86.24
2017-07-27T00:22:54.493Z,86.43
2017-07-27T00:24:05.246Z,86.43
2017-07-27T00:25:15.705Z,86.91
2017-07-27T00:26:26.284Z,86.72
2017-07-27T00:27:36.783Z,87.15
2017-07-27T00:28:47.266Z,87.25
2017-07-27T00:29:57.720Z,87.25
2017-07-27T00:31:08.297Z,87.25
2017-07-27T00:32:18.969Z,87.15
2017-07-27T00:33:29.515Z,87.35
2017-07-27T00:34:40.049Z,87.05
2017-07-27T00:35:50.731Z,87.82
2017-07-27T00:37:01.278Z,88.02
2017-07-27T00:38:11.752Z,88.21
2017-07-27T00:39:22.475Z,87.73
2017-07-27T00:40:32.943Z,88.21
2017-07-27T00:41:43.903Z,88.11
2017-07-27T00:42:54.416Z,88.11
2017-07-27T00:44:04.550Z,87.82
2017-07-27T00:45:15.009Z,88.21
2017-07-27T00:46:25.475Z,88.49
2017-07-27T00:47:36.481Z,88.4
2017-07-27T00:48:46.924Z,88.31
2017-07-27T00:49:57.400Z,88.21
2017-07-27T00:51:07.885Z,88.69
2017-07-27T00:52:18.543Z,88.49
2017-07-27T00:53:28.971Z,88.59
2017-07-27T00:54:39.480Z,89.12
2017-07-27T00:55:49.955Z,89.12
2017-07-27T00:57:00.417Z,89.12
2017-07-27T00:58:10.914Z,88.93
2017-07-27T00:59:21.595Z,88.93
2017-07-27T01:00:31.762Z,88.93
2017-07-27T01:01:42.235Z,88.93
2017-07-27T01:02:52.708Z,88.93
2017-07-27T01:04:03.190Z,88.93
2017-07-27T01:05:14.054Z,89.41
2017-07-27T01:06:24.070Z,89.61
2017-07-27T01:07:34.555Z,89.7
2017-07-27T01:08:44.570Z,89.32
2017-07-27T01:09:55.082Z,89.32
2017-07-27T01:11:05.863Z,89.7
2017-07-27T01:12:16.572Z,89.51
2017-07-27T01:13:27.050Z,90.08
2017-07-27T01:14:37.521Z,89.7
2017-07-27T01:15:47.989Z,90.08
2017-07-27T01:16:58.678Z,89.79
2017-07-27T01:18:09.149Z,89.22
2017-07-27T01:19:19.646Z,89.51
2017-07-27T01:20:30.153Z,89.61
2017-07-27T01:21:40.331Z,90.04
2017-07-27T01:22:51.192Z,89.85
2017-07-27T01:24:01.747Z,89.99
2017-07-27T01:25:11.961Z,90.23
2017-07-27T01:26:22.436Z,90.33
2017-07-27T01:27:32.887Z,90.08
2017-07-27T01:28:43.795Z,89.75
2017-07-27T01:29:54.284Z,89.75
2017-07-27T01:31:04.893Z,89.51
2017-07-27T01:32:15.351Z,89.61
2017-07-27T01:33:25.865Z,89.47
2017-07-27T01:34:36.568Z,89.47
2017-07-27T01:35:47.013Z,89.65
2017-07-27T01:36:57.585Z,89.75
2017-07-27T01:38:08.063Z,90.04
2017-07-27T01:39:18.601Z,89.94
2017-07-27T01:40:29.006Z,89.94
2017-07-27T01:41:39.462Z,89.75
2017-07-27T01:42:49.913Z,89.75
2017-07-27T01:44:00.366Z,89.75
2017-07-27T01:45:11.052Z,89.18
2017-07-27T01:46:36.442Z,89.85
2017-07-27T01:47:46.910Z,89.94
2017-07-27T01:48:57.461Z,89.75
2017-07-27T01:50:08.198Z,89.08
2017-07-27T01:51:18.733Z,89.08
2017-07-27T01:52:29.521Z,89.27
2017-07-27T01:53:40.022Z,89.47
2017-07-27T01:54:50.535Z,89.37
2017-07-27T01:56:01.115Z,89.47
2017-07-27T01:57:11.597Z,89.56
2017-07-27T01:58:22.470Z,89.75
2017-07-27T01:59:33.148Z,89.37
2017-07-27T02:00:43.639Z,89.47
2017-07-27T02:01:54.180Z,89.75
2017-07-27T02:03:04.626Z,89.75
2017-07-27T02:04:15.350Z,89.27
2017-07-27T02:05:25.828Z,89.37
2017-07-27T02:06:36.304Z,90.23
2017-07-27T02:07:46.780Z,89.37
2017-07-27T02:08:57.275Z,89.08
2017-07-27T02:10:08.990Z,89.94
2017-07-27T02:11:18.995Z,89.37
2017-07-27T02:12:29.598Z,89.08
2017-07-27T02:13:40.058Z,89.85
2017-07-27T02:14:50.253Z,89.27
2017-07-27T02:16:01.020Z,89.08
2017-07-27T02:17:11.532Z,89.75
2017-07-27T02:18:22.096Z,89.47
2017-07-27T02:19:32.582Z,89.47
2017-07-27T02:20:43.025Z,89.47
2017-07-27T02:21:53.747Z,89.32
2017-07-27T02:23:04.215Z,89.37
2017-07-27T02:24:14.667Z,89.47
2017-07-27T02:25:25.142Z,89.47
2017-07-27T02:26:35.675Z,89.27
2017-07-27T02:27:46.076Z,89.56
2017-07-27T02:28:56.573Z,89.27
2017-07-27T02:30:06.743Z,89.47
2017-07-27T02:31:17.217Z,89.27
2017-07-27T02:32:27.680Z,89.47
2017-07-27T02:33:38.430Z,89.42
2017-07-27T02:34:48.895Z,89.32
2017-07-27T02:35:59.367Z,89.32
2017-07-27T02:37:09.929Z,89.37
2017-07-27T02:38:20.370Z,89.13
2017-07-27T02:39:31.124Z,89.04
2017-07-27T02:40:41.675Z,89.71
2017-07-27T02:41:52.151Z,89.71
2017-07-27T02:43:02.630Z,89.32
2017-07-27T02:44:13.146Z,90.09
2017-07-27T02:45:23.571Z,89.9
2017-07-27T02:46:34.053Z,89.9
2017-07-27T02:47:44.529Z,89.9
2017-07-27T02:48:54.997Z,89.71
2017-07-27T02:50:05.459Z,89.32
2017-07-27T02:51:16.197Z,89.13
2017-07-27T02:52:26.660Z,89.9
2017-07-27T02:53:37.117Z,89.51
2017-07-27T02:54:47.737Z,89.32
2017-07-27T02:55:57.764Z,89.32
2017-07-27T02:57:08.516Z,89.51
2017-07-27T02:58:18.968Z,90.28
2017-07-27T02:59:29.648Z,89.42
2017-07-27T03:00:40.124Z,89.42
2017-07-27T03:01:50.138Z,89.61
2017-07-27T03:03:00.830Z,89.61
2017-07-27T03:04:11.305Z,89.42
2017-07-27T03:05:21.777Z,89.32
2017-07-27T03:06:32.258Z,89.8
2017-07-27T03:07:42.738Z,90.09
2017-07-27T03:08:53.608Z,90.09
2017-07-27T03:10:04.125Z,90
2017-07-27T03:11:14.779Z,89.9
2017-07-27T03:12:25.224Z,90
2017-07-27T03:13:35.683Z,90.19
2017-07-27T03:14:46.414Z,89.9
2017-07-27T03:15:56.882Z,90
2017-07-27T03:17:07.336Z,90
2017-07-27T03:18:17.999Z,90
2017-07-27T03:19:28.475Z,90.09
2017-07-27T03:20:39.225Z,89.9
2017-07-27T03:21:50.191Z,90
2017-07-27T03:23:00.581Z,89.9
2017-07-27T03:24:11.089Z,90.09
2017-07-27T03:25:21.556Z,90.09
2017-07-27T03:26:32.321Z,89.9
2017-07-27T03:27:42.786Z,89.9
2017-07-27T03:28:52.980Z,89.9
2017-07-27T03:30:03.424Z,89.8
2017-07-27T03:31:13.919Z,89.9
2017-07-27T03:32:24.643Z,89.9
2017-07-27T03:33:35.111Z,90
2017-07-27T03:34:45.608Z,89.9
2017-07-27T03:35:56.127Z,90
2017-07-27T03:37:06.711Z,90.09
2017-07-27T03:38:17.665Z,90.09
2017-07-27T03:39:28.200Z,90.09
2017-07-27T03:40:38.651Z,90
2017-07-27T03:41:49.150Z,90.19
2017-07-27T03:42:59.294Z,89.9
2017-07-27T03:44:10.216Z,89.71
2017-07-27T03:45:20.371Z,89.51
2017-07-27T03:46:30.855Z,89.51
2017-07-27T03:47:41.420Z,89.42
2017-07-27T03:48:51.878Z,90
2017-07-27T03:50:02.581Z,89.42
2017-07-27T03:51:13.130Z,89.42
2017-07-27T03:52:23.593Z,89.51
2017-07-27T03:53:34.058Z,89.42
2017-07-27T03:54:44.758Z,90.28
2017-07-27T03:55:55.002Z,89.9
2017-07-27T03:57:05.472Z,90
2017-07-27T03:58:16.203Z,90.09
2017-07-27T03:59:26.717Z,89.9
2017-07-27T04:00:37.150Z,90.09
2017-07-27T04:01:47.859Z,89.9
2017-07-27T04:02:58.315Z,90.09
2017-07-27T04:04:08.773Z,89.8
2017-07-27T04:05:19.210Z,89.42
2017-07-27T04:06:29.417Z,89.23
2017-07-27T04:07:40.104Z,89.51
2017-07-27T04:08:50.592Z,90
2017-07-27T04:10:01.151Z,89.47
2017-07-27T04:11:11.638Z,89.51
2017-07-27T04:12:22.214Z,89.61
2017-07-27T04:13:33.026Z,90.28
2017-07-27T04:14:43.488Z,89.9
2017-07-27T04:15:54.011Z,90.05
2017-07-27T04:17:04.159Z,90.09
2017-07-27T04:18:14.864Z,90.09
2017-07-27T04:19:25.555Z,90.19
2017-07-27T04:20:36.022Z,90.38
2017-07-27T04:21:46.501Z,90
2017-07-27T04:22:56.981Z,89.9
2017-07-27T04:24:08.428Z,89.71
2017-07-27T04:25:19.358Z,89.47
2017-07-27T04:26:29.930Z,89.51
2017-07-27T04:27:40.369Z,89.32
2017-07-27T04:28:50.248Z,89.51
2017-07-27T04:30:00.699Z,89.42
2017-07-27T04:31:11.654Z,89.23
2017-07-27T04:32:22.097Z,89.42
2017-07-27T04:33:33.209Z,89.51
2017-07-27T04:34:43.148Z,89.42
2017-07-27T04:35:53.632Z,90.28
2017-07-27T04:37:04.338Z,89.71
2017-07-27T04:38:14.842Z,89.8
2017-07-27T04:39:25.314Z,89.32
2017-07-27T04:40:35.774Z,89.9
2017-07-27T04:41:46.356Z,89.23
2017-07-27T04:42:57.108Z,89.71
2017-07-27T04:44:07.750Z,90
2017-07-27T04:45:18.446Z,89.32
2017-07-27T04:46:28.988Z,89.9
2017-07-27T04:47:39.466Z,89.23
2017-07-27T04:48:50.343Z,89.23
2017-07-27T04:50:00.810Z,89.71
2017-07-27T04:51:11.237Z,89.42
2017-07-27T04:52:21.731Z,90.19
2017-07-27T04:53:31.899Z,89.61
2017-07-27T04:54:42.622Z,89.47
2017-07-27T04:55:53.083Z,89.65
2017-07-27T04:57:03.596Z,89.75
2017-07-27T04:58:14.051Z,89.37
2017-07-27T04:59:24.750Z,89.75
2017-07-27T05:00:35.138Z,89.08
2017-07-27T05:01:45.573Z,89.18
2017-07-27T05:02:56.119Z,89.94
2017-07-27T05:04:06.650Z,89.27
2017-07-27T05:05:17.204Z,90.18
2017-07-27T05:06:27.986Z,90.08
2017-07-27T05:07:38.476Z,89.99
2017-07-27T05:08:48.922Z,89.32
2017-07-27T05:09:59.385Z,89.51
2017-07-27T05:11:09.869Z,89.12
2017-07-27T05:12:20.669Z,88.93
2017-07-27T05:13:31.136Z,89.36
2017-07-27T05:14:41.639Z,89.07
2017-07-27T05:15:52.129Z,89.26
2017-07-27T05:17:02.620Z,88.59
2017-07-27T05:18:13.337Z,88.31
2017-07-27T05:19:23.788Z,88.49
2017-07-27T05:20:34.279Z,87.87
2017-07-27T05:21:44.775Z,87.96
2017-07-27T05:22:55.217Z,87.87
2017-07-27T05:24:06.271Z,88.06
2017-07-27T05:25:16.713Z,87.49
2017-07-27T05:26:27.148Z,87.24
2017-07-27T05:27:37.774Z,87.43
2017-07-27T05:28:48.687Z,87.43
2017-07-27T05:29:59.402Z,86.95
2017-07-27T05:31:09.881Z,87.24
2017-07-27T05:32:20.383Z,86.95
2017-07-27T05:33:30.844Z,86.85
2017-07-27T05:34:41.522Z,86.76
2017-07-27T05:35:52.531Z,86.38
2017-07-27T05:37:02.610Z,86.47
2017-07-27T05:38:12.773Z,86.66
2017-07-27T05:39:23.239Z,86.18
2017-07-27T05:40:33.896Z,86.18
2017-07-27T05:41:44.473Z,86.38
2017-07-27T05:42:54.941Z,86.28
2017-07-27T05:44:05.533Z,86.38
2017-07-27T05:45:16.277Z,86.28
2017-07-27T05:46:26.777Z,85.8
2017-07-27T05:47:37.485Z,85.71
2017-07-27T05:48:47.949Z,85.99
2017-07-27T05:49:58.431Z,85.61
2017-07-27T05:51:08.950Z,85.8
2017-07-27T05:52:19.406Z,85.51
2017-07-27T05:53:29.779Z,85.51
2017-07-27T05:54:40.232Z,85.8
2017-07-27T05:55:50.733Z,85.41
2017-07-27T05:57:01.182Z,85.51
2017-07-27T05:58:11.310Z,85.61
2017-07-27T05:59:22.330Z,85.41
2017-07-27T06:00:33.024Z,85.32
2017-07-27T06:01:43.168Z,85.41
2017-07-27T06:02:53.612Z,85.99
2017-07-27T06:04:04.126Z,86.09
2017-07-27T06:05:14.879Z,85.65
2017-07-27T06:06:25.346Z,85.27
2017-07-27T06:07:35.900Z,85.27
2017-07-27T06:08:46.368Z,85.65
2017-07-27T06:09:56.879Z,85.46
2017-07-27T06:11:07.613Z,85.17
2017-07-27T06:12:18.264Z,85.17
2017-07-27T06:13:28.739Z,84.69
2017-07-27T06:14:39.222Z,84.92
2017-07-27T06:15:49.920Z,84.4
2017-07-27T06:17:00.614Z,84.83
2017-07-27T06:18:11.158Z,84.44
2017-07-27T06:19:21.705Z,84.34
2017-07-27T06:20:32.424Z,84.34
2017-07-27T06:21:42.920Z,83.96
2017-07-27T06:22:53.633Z,84.06
2017-07-27T06:24:04.102Z,83.39
2017-07-27T06:25:14.423Z,83.96
2017-07-27T06:26:24.887Z,83.09
2017-07-27T06:27:35.432Z,83.58
2017-07-27T06:28:46.163Z,83
2017-07-27T06:29:56.610Z,83
2017-07-27T06:31:07.113Z,83
2017-07-27T06:32:17.328Z,83.48
2017-07-27T06:33:27.798Z,82.61
2017-07-27T06:34:38.721Z,82.61
2017-07-27T06:35:49.186Z,83
2017-07-27T06:36:59.654Z,82.52
2017-07-27T06:38:10.319Z,82.56
2017-07-27T06:39:20.456Z,82.42
2017-07-27T06:40:31.207Z,82.61
2017-07-27T06:41:41.903Z,82.17
2017-07-27T06:42:52.656Z,82.14
2017-07-27T06:44:03.144Z,82.27
2017-07-27T06:45:13.734Z,81.6
2017-07-27T06:46:24.474Z,82.17
2017-07-27T06:47:35.101Z,82.04
2017-07-27T06:48:45.546Z,82.08
2017-07-27T06:49:56.315Z,81.6
2017-07-27T06:51:06.840Z,81.4
2017-07-27T06:52:17.552Z,81.5
2017-07-27T06:53:28.067Z,81.5
2017-07-27T06:54:38.763Z,81.5
2017-07-27T06:55:49.224Z,81.12
2017-07-27T06:56:59.750Z,81.02
2017-07-27T06:58:10.460Z,81.4
2017-07-27T06:59:20.919Z,80.73
2017-07-27T07:00:31.479Z,80.44
2017-07-27T07:01:42.141Z,79.67
2017-07-27T07:02:52.881Z,79.77
2017-07-27T07:04:03.589Z,79.58
2017-07-27T07:05:13.838Z,79.28
2017-07-27T07:06:24.289Z,79.38
2017-07-27T07:07:34.774Z,79.28
2017-07-27T07:08:45.232Z,79
2017-07-27T07:09:55.965Z,79
2017-07-27T07:11:06.444Z,78.81
2017-07-27T07:12:17.129Z,79
2017-07-27T07:13:27.610Z,78.61
2017-07-27T07:14:38.119Z,78.61
2017-07-27T07:15:48.858Z,78.9
2017-07-27T07:16:59.568Z,78.81
2017-07-27T07:18:10.066Z,78.61
2017-07-27T07:19:20.539Z,78.52
2017-07-27T07:20:31.261Z,78.61
2017-07-27T07:21:41.971Z,78.52
2017-07-27T07:22:52.562Z,79
2017-07-27T07:24:03.077Z,78.13
2017-07-27T07:25:13.545Z,77.84
2017-07-27T07:26:24.017Z,78.33
2017-07-27T07:27:34.956Z,78.13
2017-07-27T07:28:45.479Z,78.13
2017-07-27T07:29:55.496Z,78.03
2017-07-27T07:31:05.980Z,77.84
2017-07-27T07:32:16.482Z,77.65
2017-07-27T07:33:27.183Z,77.75
2017-07-27T07:34:37.720Z,77.84
2017-07-27T07:35:48.169Z,77.75
2017-07-27T07:36:58.613Z,78.13
2017-07-27T07:38:09.365Z,78.03
2017-07-27T07:39:20.098Z,77.94
2017-07-27T07:40:30.557Z,79
2017-07-27T07:41:41.079Z,78.71
2017-07-27T07:42:51.535Z,78.81
2017-07-27T07:44:02.234Z,79.28
2017-07-27T07:45:12.624Z,78.9
2017-07-27T07:46:23.184Z,79.53
2017-07-27T07:47:33.679Z,79.25
2017-07-27T07:48:44.163Z,79.67
2017-07-27T07:49:54.802Z,79.86
2017-07-27T07:51:05.676Z,79.77
2017-07-27T07:52:16.147Z,79.58
2017-07-27T07:53:26.635Z,79.96
2017-07-27T07:54:37.270Z,79.63
2017-07-27T07:55:47.749Z,79.96
2017-07-27T07:56:58.464Z,80.54
2017-07-27T07:58:09.011Z,80.25
2017-07-27T07:59:19.484Z,80.15
2017-07-27T08:00:29.528Z,80.35
2017-07-27T08:01:40.021Z,80.35
2017-07-27T08:02:50.738Z,80.63
2017-07-27T08:04:01.222Z,80.44
2017-07-27T08:05:11.731Z,80.35
2017-07-27T08:06:22.211Z,80.92
2017-07-27T08:07:32.696Z,80.83
2017-07-27T08:08:43.428Z,81.07
2017-07-27T08:09:53.956Z,80.6
2017-07-27T08:11:04.732Z,81.27
2017-07-27T08:12:15.186Z,81.27
2017-07-27T08:13:25.727Z,81.07
2017-07-27T08:14:36.675Z,81.7
2017-07-27T08:15:47.202Z,81.7
2017-07-27T08:16:57.721Z,80.92
2017-07-27T08:18:08.219Z,81.12
2017-07-27T08:19:18.704Z,81.4
2017-07-27T08:20:29.438Z,80.73
2017-07-27T08:21:39.925Z,80.92
2017-07-27T08:22:50.483Z,80.92
2017-07-27T08:24:00.949Z,81.02
2017-07-27T08:25:11.428Z,80.83
2017-07-27T08:26:22.146Z,80.92
2017-07-27T08:27:32.718Z,80.92
2017-07-27T08:28:43.209Z,80.83
2017-07-27T08:29:53.747Z,80.87
2017-07-27T08:31:04.234Z,80.96
2017-07-27T08:32:15.000Z,80.44
2017-07-27T08:33:26.466Z,80.38
2017-07-27T08:34:36.661Z,80.29
2017-07-27T08:35:47.156Z,80.29
2017-07-27T08:36:57.865Z,80.38
2017-07-27T08:38:08.692Z,80.58
2017-07-27T08:39:19.759Z,80
2017-07-27T08:40:30.236Z,80.1
2017-07-27T08:41:40.849Z,80.1
2017-07-27T08:42:51.306Z,79.75
2017-07-27T08:44:02.039Z,79.56
2017-07-27T08:45:12.544Z,79.27
2017-07-27T08:46:23.038Z,79.27
2017-07-27T08:47:33.492Z,79.08
2017-07-27T08:48:44.107Z,78.59
2017-07-27T08:49:54.822Z,78.88
2017-07-27T08:51:05.553Z,78.69
2017-07-27T08:52:16.041Z,78.69
2017-07-27T08:53:26.550Z,78.88
2017-07-27T08:54:37.056Z,78.92
2017-07-27T08:55:47.759Z,78.5
2017-07-27T08:56:58.236Z,78.02
2017-07-27T08:58:08.876Z,78.21
2017-07-27T08:59:19.395Z,78.02
2017-07-27T09:00:29.810Z,78.79
2017-07-27T09:01:40.417Z,78.88
2017-07-27T09:02:50.947Z,79.08
2017-07-27T09:04:01.652Z,78.69
2017-07-27T09:05:12.118Z,79.08
2017-07-27T09:06:22.626Z,78.88
2017-07-27T09:07:33.474Z,78.88
2017-07-27T09:08:43.945Z,78.88
2017-07-27T09:09:54.095Z,78.79
2017-07-27T09:11:04.708Z,79.08
2017-07-27T09:12:15.232Z,78.98
2017-07-27T09:13:25.971Z,79.27
2017-07-27T09:14:36.156Z,79.08
2017-07-27T09:15:46.616Z,79.36
2017-07-27T09:16:57.129Z,78.98
2017-07-27T09:18:06.951Z,79.27
2017-07-27T09:19:17.354Z,79.66
2017-07-27T09:20:27.560Z,79.56
2017-07-27T09:21:38.043Z,80.04
2017-07-27T09:22:48.550Z,79.75
2017-07-27T09:23:59.034Z,80.23
2017-07-27T09:25:09.740Z,80.04
2017-07-27T09:26:20.224Z,79.94
2017-07-27T09:27:31.705Z,79.85
2017-07-27T09:28:42.175Z,79.85
2017-07-27T09:29:52.663Z,80.33
2017-07-27T09:31:03.398Z,80.04
2017-07-27T09:32:13.588Z,80.62
2017-07-27T09:33:24.109Z,81.1
2017-07-27T09:34:34.298Z,81.1
2017-07-27T09:35:44.881Z,80.81
2017-07-27T09:36:55.615Z,80.81
2017-07-27T09:38:06.113Z,81.29
2017-07-27T09:39:16.638Z,81.39
2017-07-27T09:40:27.110Z,81.39
2017-07-27T09:41:37.599Z,81.48
2017-07-27T09:42:48.353Z,81.29
2017-07-27T09:43:58.489Z,81.01
2017-07-27T09:45:09.015Z,80.71
2017-07-27T09:46:19.575Z,81.01
2017-07-27T09:47:30.045Z,81.01
2017-07-27T09:48:41.033Z,80.91
2017-07-27T09:49:51.193Z,81.2
2017-07-27T09:51:01.365Z,81.1
2017-07-27T09:52:11.392Z,81.1
2017-07-27T09:53:21.543Z,81.68
2017-07-27T09:54:32.274Z,81.68
2017-07-27T09:55:42.874Z,81.96
2017-07-27T09:56:53.363Z,82.35
2017-07-27T09:58:03.846Z,82.45
2017-07-27T09:59:14.343Z,81.83
2017-07-27T10:00:25.166Z,82.31
2017-07-27T10:01:35.638Z,82.5
2017-07-27T10:02:46.143Z,82.5
2017-07-27T10:03:56.612Z,82.7
2017-07-27T10:05:07.173Z,83.56
2017-07-27T10:06:17.915Z,83.08
2017-07-27T10:07:28.067Z,83.28
2017-07-27T10:08:38.770Z,83.08
2017-07-27T10:09:49.284Z,83.28
2017-07-27T10:10:59.764Z,83.28
2017-07-27T10:12:10.596Z,83.56
2017-07-27T10:13:20.968Z,83.28
2017-07-27T10:14:31.424Z,83.28
2017-07-27T10:15:41.938Z,83.18
2017-07-27T10:16:52.416Z,83.8
2017-07-27T10:18:03.406Z,83.89
2017-07-27T10:19:13.859Z,83.61
2017-07-27T10:20:24.384Z,83.7
2017-07-27T10:21:34.851Z,83.61
2017-07-27T10:22:45.388Z,83.61
2017-07-27T10:23:56.097Z,83.7
2017-07-27T10:25:06.676Z,84.38
2017-07-27T10:26:16.826Z,83.31
2017-07-27T10:27:27.510Z,83.8
2017-07-27T10:28:38.030Z,83.45
2017-07-27T10:29:48.459Z,83.64
2017-07-27T10:30:58.976Z,83.4
2017-07-27T10:32:09.689Z,83.59
2017-07-27T10:33:20.228Z,83.25
2017-07-27T10:34:30.933Z,83.53
2017-07-27T10:35:41.656Z,82.9
2017-07-27T10:36:52.133Z,82.23
2017-07-27T10:38:02.283Z,81.65
2017-07-27T10:39:12.765Z,81.26
2017-07-27T10:40:23.033Z,80.68
2017-07-27T10:41:33.758Z,80
2017-07-27T10:42:44.229Z,80.1
2017-07-27T10:43:54.408Z,79.91
2017-07-27T10:45:05.046Z,79.81
2017-07-27T10:46:15.299Z,79.27
2017-07-27T10:47:26.103Z,78.89
2017-07-27T10:48:36.794Z,79.27
2017-07-27T10:49:47.552Z,78.41
2017-07-27T10:50:58.056Z,78.31
2017-07-27T10:52:08.750Z,78.34
2017-07-27T10:53:19.218Z,77.86
2017-07-27T10:54:29.672Z,77.57
2017-07-27T10:55:40.284Z,77.57
2017-07-27T10:56:50.796Z,77.38
2017-07-27T10:58:01.257Z,77.67
2017-07-27T10:59:12.060Z,77.09
2017-07-27T11:00:22.538Z,77.28
2017-07-27T11:01:33.404Z,77.19
2017-07-27T11:02:43.874Z,77.09
2017-07-27T11:03:54.037Z,77.05
2017-07-27T11:05:04.739Z,76.95
2017-07-27T11:06:15.260Z,77.15
2017-07-27T11:07:25.762Z,77.25
2017-07-27T11:08:36.239Z,76.95
2017-07-27T11:09:46.850Z,77.25
2017-07-27T11:10:57.590Z,77.05
2017-07-27T11:12:08.267Z,76.95
2017-07-27T11:13:18.757Z,76.95
2017-07-27T11:14:29.264Z,76.95
2017-07-27T11:15:39.867Z,77.34
2017-07-27T11:16:50.587Z,76.82
2017-07-27T11:18:01.091Z,76.92
2017-07-27T11:19:11.605Z,76.92
2017-07-27T11:20:22.098Z,76.92
2017-07-27T11:21:32.584Z,76.82
2017-07-27T11:22:43.592Z,76.92
2017-07-27T11:23:54.053Z,77.11
2017-07-27T11:25:04.615Z,77.3
2017-07-27T11:26:15.157Z,77.21
2017-07-27T11:27:25.641Z,77.01
2017-07-27T11:28:36.143Z,76.92
2017-07-27T11:29:46.653Z,77.01
2017-07-27T11:30:57.205Z,77.01
2017-07-27T11:32:07.788Z,76.82
2017-07-27T11:33:18.268Z,76.72
2017-07-27T11:34:29.078Z,76.82
2017-07-27T11:35:39.591Z,77.11
2017-07-27T11:36:50.064Z,77.21
2017-07-27T11:38:00.611Z,76.72
2017-07-27T11:39:11.129Z,76.43
2017-07-27T11:40:22.811Z,75.79
2017-07-27T11:41:33.340Z,75.99
2017-07-27T11:42:43.825Z,75.7
2017-07-27T11:43:54.551Z,74.93
2017-07-27T11:45:05.041Z,74.73
2017-07-27T11:46:15.826Z,74.29
2017-07-27T11:47:26.300Z,73.52
2017-07-27T11:48:36.861Z,72.84
2017-07-27T11:49:47.397Z,71.78
2017-07-27T11:50:57.853Z,71.78
2017-07-27T11:52:08.591Z,71.78
2017-07-27T11:53:20.285Z,71.1
2017-07-27T11:54:30.840Z,70.52
2017-07-27T11:55:41.399Z,70.56
2017-07-27T11:56:51.881Z,69.2
2017-07-27T11:58:02.917Z,68.04
2017-07-27T11:59:13.411Z,68.24
2017-07-27T12:00:23.915Z,67.21
2017-07-27T12:01:34.408Z,66.82
2017-07-27T12:02:44.953Z,63.92
2017-07-27T12:03:55.699Z,64.14
2017-07-27T12:05:06.157Z,64.79
2017-07-27T12:06:16.568Z,64.43
2017-07-27T12:07:27.291Z,65.2
2017-07-27T12:08:37.812Z,65.4
2017-07-27T12:09:48.561Z,63.95
2017-07-27T12:10:58.766Z,64.82
2017-07-27T12:12:09.259Z,64.56
2017-07-27T12:13:19.780Z,64.27
2017-07-27T12:14:29.957Z,63.31
2017-07-27T12:15:40.670Z,62.53
2017-07-27T12:16:51.285Z,61.66
2017-07-27T12:18:01.774Z,61.08
2017-07-27T12:19:12.374Z,60.88
2017-07-27T12:20:22.892Z,61.18
2017-07-27T12:21:33.750Z,61.01
2017-07-27T12:22:44.213Z,60.33
2017-07-27T12:23:54.744Z,61.01
2017-07-27T12:25:05.481Z,60.75
2017-07-27T12:26:15.972Z,61.14
2017-07-27T12:27:26.702Z,61.26
2017-07-27T12:28:37.182Z,60.88
2017-07-27T12:29:47.828Z,60.78
2017-07-27T12:30:58.412Z,60.52
2017-07-27T12:32:08.990Z,59.84
2017-07-27T12:33:19.996Z,59.16
2017-07-27T12:34:30.764Z,58.87
2017-07-27T12:35:41.312Z,58.84
2017-07-27T12:36:51.839Z,58.26
2017-07-27T12:38:02.348Z,58.45
2017-07-27T12:39:13.333Z,58.33
2017-07-27T12:40:24.362Z,58.33
2017-07-27T12:41:34.866Z,58.04
2017-07-27T12:42:45.567Z,57.94
2017-07-27T12:43:56.291Z,58.52
2017-07-27T12:45:07.064Z,57.55
2017-07-27T12:46:17.586Z,57.04
2017-07-27T12:47:28.066Z,57.84
2017-07-27T12:48:38.586Z,58.2
2017-07-27T12:49:49.104Z,58.49
2017-07-27T12:50:59.883Z,58.69
2017-07-27T12:52:10.442Z,57.62
2017-07-27T12:53:20.927Z,57.91
2017-07-27T12:54:31.395Z,57.91
2017-07-27T12:55:41.910Z,58.52
2017-07-27T12:56:52.633Z,58.33
2017-07-27T12:58:03.105Z,55.81
2017-07-27T12:59:13.627Z,57
2017-07-27T13:00:24.411Z,56.23
2017-07-27T13:01:34.613Z,56.71
2017-07-27T13:02:45.344Z,56.74
2017-07-27T13:03:55.862Z,56.64
2017-07-27T13:05:06.360Z,55.28
2017-07-27T13:06:16.840Z,55.96
2017-07-27T13:07:27.410Z,56.05
2017-07-27T13:08:38.236Z,55.77
2017-07-27T13:09:48.703Z,55.6
2017-07-27T13:10:59.278Z,55.11
2017-07-27T13:12:09.752Z,53.73
2017-07-27T13:13:19.952Z,54.41
2017-07-27T13:14:30.767Z,54.41
2017-07-27T13:15:41.249Z,54.41
2017-07-27T13:16:51.819Z,55.08
2017-07-27T13:18:02.381Z,53.92
2017-07-27T13:19:12.873Z,54.86
2017-07-27T13:20:23.634Z,54.19
2017-07-27T13:21:34.121Z,54.38
2017-07-27T13:22:44.783Z,55.26
2017-07-27T13:23:55.395Z,54.96
2017-07-27T13:25:05.594Z,55.22
2017-07-27T13:26:16.339Z,55.74
2017-07-27T13:27:27.077Z,55.22
2017-07-27T13:28:37.564Z,55.42
2017-07-27T13:29:47.689Z,55.42
2017-07-27T13:30:58.199Z,55.81
2017-07-27T13:32:09.141Z,55.13
2017-07-27T13:33:19.858Z,55.64
2017-07-27T13:34:30.366Z,55.64
2017-07-27T13:35:40.861Z,55.44
2017-07-27T13:36:51.462Z,55.54
2017-07-27T13:38:02.196Z,55.64
2017-07-27T13:39:12.707Z,55.35
2017-07-27T13:40:23.416Z,55.06
2017-07-27T13:41:33.902Z,54.77
2017-07-27T13:42:44.097Z,55.26
2017-07-27T13:43:54.864Z,54.55
2017-07-27T13:45:05.218Z,55.22
2017-07-27T13:46:15.724Z,55.32
2017-07-27T13:47:26.335Z,55.32
2017-07-27T13:48:36.842Z,55.71
2017-07-27T13:49:47.620Z,55.81
2017-07-27T13:50:57.811Z,55.9
2017-07-27T13:52:08.298Z,55.71
2017-07-27T13:53:18.492Z,55.9
2017-07-27T13:54:28.986Z,56
2017-07-27T13:55:39.901Z,56.1
2017-07-27T13:56:50.381Z,56.68
2017-07-27T13:58:01.169Z,56.68
2017-07-27T13:59:11.706Z,56.97
2017-07-27T14:00:22.189Z,56.39
2017-07-27T14:01:32.979Z,56.68
2017-07-27T14:02:43.518Z,56.68
2017-07-27T14:03:54.039Z,56.68
2017-07-27T14:05:04.563Z,57
2017-07-27T14:06:15.128Z,57
2017-07-27T14:07:26.086Z,54.58
2017-07-27T14:08:36.589Z,54.58
2017-07-27T14:09:47.155Z,53.73
2017-07-27T14:10:57.659Z,54.99
2017-07-27T14:12:08.138Z,55.06
2017-07-27T14:13:18.875Z,55.06
2017-07-27T14:14:29.483Z,54.7
2017-07-27T14:15:39.969Z,55.08
2017-07-27T14:16:50.504Z,55.18
2017-07-27T14:18:01.254Z,55.06
2017-07-27T14:19:12.047Z,55.44
2017-07-27T14:20:22.542Z,54.9
2017-07-27T14:21:33.157Z,54.58
2017-07-27T14:22:43.629Z,54.58
2017-07-27T14:23:54.145Z,54.28
2017-07-27T14:25:05.396Z,54.67
2017-07-27T14:26:15.930Z,55.64
2017-07-27T14:27:26.468Z,55.44
2017-07-27T14:28:36.964Z,55.71
2017-07-27T14:29:47.449Z,54.55
2017-07-27T14:30:58.472Z,55.22
2017-07-27T14:32:09.026Z,54.84
2017-07-27T14:33:19.543Z,55.42
2017-07-27T14:34:30.076Z,55.42
2017-07-27T14:35:40.549Z,55.81
2017-07-27T14:36:51.281Z,56.2
2017-07-27T14:38:01.848Z,55.9
2017-07-27T14:39:12.360Z,56
2017-07-27T14:40:23.094Z,55.81
2017-07-27T14:41:33.598Z,55.81
2017-07-27T14:42:44.366Z,56.29
2017-07-27T14:43:54.899Z,56
2017-07-27T14:45:04.961Z,56.1
2017-07-27T14:46:15.514Z,55.9
2017-07-27T14:47:26.179Z,55.81
2017-07-27T14:48:36.987Z,56.1
2017-07-27T14:49:47.499Z,56.68
2017-07-27T14:50:58.123Z,56
2017-07-27T14:52:08.607Z,55.62
2017-07-27T14:53:19.176Z,55.62
2017-07-27T14:54:29.651Z,55.42
2017-07-27T14:55:40.232Z,55.81
2017-07-27T14:56:50.763Z,55.9
2017-07-27T14:58:01.237Z,55.98
2017-07-27T14:59:11.898Z,56.07
2017-07-27T15:00:22.641Z,56.07
2017-07-27T15:01:33.188Z,56.65
2017-07-27T15:02:43.440Z,56.56
2017-07-27T15:03:53.928Z,56.94
2017-07-27T15:05:04.468Z,57.14
2017-07-27T15:06:15.407Z,57.23
2017-07-27T15:07:25.900Z,57.14
2017-07-27T15:08:36.405Z,57.33
2017-07-27T15:09:46.938Z,57.43
2017-07-27T15:10:57.454Z,57.62
2017-07-27T15:12:08.222Z,57.62
2017-07-27T15:13:18.806Z,57.81
2017-07-27T15:14:29.405Z,57.71
2017-07-27T15:15:39.603Z,58.01